Accueil
METAR-TAF:

METAR-TAF

Aéroports :

Aéroport international Léopold-Sédar-Senghor

Dakar, Sénégal

latitude: 14-44N, longitude: 017-30W, altitude: 27 m

Observation

Le bulletin a été fait il y a 1 heure et 17 minutes, à 10:00 UTC
Vent 4 kt de ouest
Température 28°C
Humidité 70%
Pression 1014 hPa
Visibilité 10 km ou plus
Nuages épars à une hauteur de 1300 ft

METAR: GOOY 201000Z 28004KT 9999 SCT013 28/22 Q1014

Heure: 11:17 (11:17 UTC)

Prévision

Le bulletin a été fait il y a 5 heures et 47 minutes, à 05:30 UTC
Prévision valable du 20 à 06 UTC au 21 à 12 UTC
Vent 8 kt de ouest/nord-ouest
Visibilité 10 km ou plus
Nuages épars à une hauteur de 1200 ft

TAF: GOOY 200530Z 2006/2112 30008KT 9999 SCT012

Observations et prévisions météorologiques de plus de 4000 aéroports (messages METAR et TAF).

Les stations disponibles sont représentées par des disques jaunes et rouges sur la carte.

Passer la souris dessus pour voir le nom de la station.

Cliquer dessus pour voir les observations et prévisions météorologiques.

Pour changer de carte: cliquez sur les boutons verts avec une croix noire pour zoomer, sur le bouton vert avec un tiret pour effectuer un zoom arrière, ou sur les flèches vertes pour les cartes adjacentes.


METAR-TAF: